Old Greenwich, Connecticut
Current Conditions -  °F | °C
As of 11:56 AM on Sunday 21 Dec 2014 (Local Time) from KHPN Reporting Station
Haze Haze  
Wind Chill: 25°   Ceiling: 1400
Heat Index: 32°   Visibility: 6mi
Dew Point: 27°   Wind: 8mph
Humidity: 82%   Direction: 340°NNW
Pressure: 30.26"   Gusts: NA
Location:  41.02°N, 73.57°W
Report Text: KHPN 211656Z 34007KT 6SM HZ OVC014 00/M03 A3026 RMK AO2 SLP257 T00001028
Loading
Personal Weather Stations






























Interactive Weather Map New forecast layout! Learn more

10-Day Weather Forecast

Advertisements
Track Severe Weather on mobile